createdAt,value
2023-02-22T00:00:41.139Z,89.50
2023-02-22T00:03:09.287Z,89.30
2023-02-22T00:05:36.443Z,89.10
2023-02-22T00:08:03.209Z,89.40
2023-02-22T00:10:29.915Z,89.50
2023-02-22T00:12:57.988Z,89.00
2023-02-22T00:15:24.889Z,89.00
2023-02-22T00:17:51.668Z,89.10
2023-02-22T00:20:18.846Z,88.90
2023-02-22T00:22:47.459Z,88.80
2023-02-22T00:25:15.746Z,88.70
2023-02-22T00:27:42.540Z,88.90
2023-02-22T00:30:14.787Z,88.80
2023-02-22T00:32:43.216Z,89.10
2023-02-22T00:35:09.972Z,89.10
2023-02-22T00:37:36.756Z,89.00
2023-02-22T00:40:03.795Z,89.00
2023-02-22T00:42:30.525Z,89.00
2023-02-22T00:44:57.235Z,88.40
2023-02-22T00:47:25.327Z,88.40
2023-02-22T00:49:52.068Z,88.50
2023-02-22T00:52:18.832Z,88.90
2023-02-22T00:54:45.589Z,89.60
2023-02-22T00:57:12.647Z,88.80
2023-02-22T00:59:39.394Z,88.90
2023-02-22T01:02:06.296Z,89.00
2023-02-22T01:04:34.596Z,89.40
2023-02-22T01:07:01.546Z,89.20
2023-02-22T01:09:28.300Z,89.50
2023-02-22T01:11:55.820Z,90.00
2023-02-22T01:14:23.093Z,90.20
2023-02-22T01:16:50.203Z,90.00
2023-02-22T01:19:17.055Z,89.30
2023-02-22T01:21:45.167Z,88.80
2023-02-22T01:24:11.938Z,89.70
2023-02-22T01:26:38.673Z,88.80
2023-02-22T01:29:05.520Z,88.60
2023-02-22T01:31:32.261Z,89.30
2023-02-22T01:33:59.076Z,90.00
2023-02-22T01:36:25.817Z,89.30
2023-02-22T01:38:53.901Z,89.10
2023-02-22T01:41:20.790Z,88.90
2023-02-22T01:43:47.493Z,89.00
2023-02-22T01:46:22.440Z,88.80
2023-02-22T01:48:53.989Z,88.80
2023-02-22T01:51:23.374Z,89.00
2023-02-22T01:53:55.570Z,89.40
2023-02-22T01:56:25.153Z,89.10
2023-02-22T01:58:57.116Z,88.80
2023-02-22T02:01:25.800Z,89.00
2023-02-22T02:03:56.198Z,89.00
2023-02-22T02:06:22.965Z,88.90
2023-02-22T02:08:57.924Z,88.90
2023-02-22T02:11:25.955Z,88.90
2023-02-22T02:13:54.006Z,88.30
2023-02-22T02:16:21.223Z,88.50
2023-02-22T02:18:48.136Z,88.50
2023-02-22T02:21:41.750Z,89.00
2023-02-22T02:24:53.981Z,88.80
2023-02-22T02:27:22.742Z,88.80
2023-02-22T02:30:33.484Z,89.20
2023-02-22T02:33:08.246Z,89.50
2023-02-22T02:35:47.929Z,90.00
2023-02-22T02:38:26.718Z,89.90
2023-02-22T02:41:03.778Z,89.70
2023-02-22T02:43:36.937Z,89.10
2023-02-22T02:46:07.946Z,88.30
2023-02-22T02:48:39.658Z,88.10
2023-02-22T02:51:09.128Z,88.00
2023-02-22T02:53:39.512Z,88.00
2023-02-22T02:56:06.790Z,88.20
2023-02-22T02:58:33.714Z,88.20
2023-02-22T03:01:03.328Z,88.40
2023-02-22T03:04:00.043Z,88.50
2023-02-22T03:06:44.565Z,88.50
2023-02-22T03:09:18.705Z,89.90
2023-02-22T03:11:50.769Z,90.20
2023-02-22T03:14:26.523Z,89.70
2023-02-22T03:16:59.681Z,89.50
2023-02-22T03:19:36.322Z,89.10
2023-02-22T03:22:10.167Z,88.90
2023-02-22T03:24:44.513Z,89.60
2023-02-22T03:27:16.776Z,89.60
2023-02-22T03:29:45.346Z,89.40
2023-02-22T03:32:16.569Z,89.30
2023-02-22T03:34:51.108Z,89.40
2023-02-22T03:37:21.192Z,89.60
2023-02-22T03:39:51.346Z,89.20
2023-02-22T03:42:22.234Z,89.30
2023-02-22T03:44:51.435Z,89.20
2023-02-22T03:47:22.873Z,88.90
2023-02-22T03:49:56.271Z,88.60
2023-02-22T03:52:23.291Z,88.60
2023-02-22T03:54:50.396Z,88.50
2023-02-22T03:57:23.575Z,88.70
2023-02-22T03:59:50.570Z,89.60
2023-02-22T04:02:17.312Z,89.70
2023-02-22T04:04:44.169Z,89.90
2023-02-22T04:07:12.265Z,89.80
2023-02-22T04:09:39.171Z,89.70
2023-02-22T04:12:06.293Z,89.80
2023-02-22T04:14:33.038Z,90.00
2023-02-22T04:17:00.196Z,89.80
2023-02-22T04:19:26.981Z,89.40
2023-02-22T04:21:53.728Z,89.50
2023-02-22T04:24:21.786Z,89.70
2023-02-22T04:26:48.506Z,90.00
2023-02-22T04:29:15.225Z,90.00
2023-02-22T04:31:41.936Z,89.90
2023-02-22T04:34:08.832Z,89.60
2023-02-22T04:36:35.531Z,89.80
2023-02-22T04:39:02.322Z,88.80
2023-02-22T04:41:30.462Z,88.90
2023-02-22T04:43:57.253Z,89.30
2023-02-22T04:46:24.101Z,89.30
2023-02-22T04:48:50.856Z,89.40
2023-02-22T04:51:18.135Z,89.50
2023-02-22T04:53:45.016Z,89.50
2023-02-22T04:56:12.200Z,89.40
2023-02-22T04:58:40.266Z,89.70
2023-02-22T05:01:07.001Z,90.00
2023-02-22T05:03:33.744Z,90.00
2023-02-22T05:06:00.482Z,90.00
2023-02-22T05:08:27.190Z,89.90
2023-02-22T05:10:53.914Z,90.00
2023-02-22T05:13:20.888Z,90.50
2023-02-22T05:15:49.047Z,91.10
2023-02-22T05:18:16.125Z,91.00
2023-02-22T05:20:42.865Z,90.70
2023-02-22T05:23:09.705Z,90.50
2023-02-22T05:25:36.414Z,90.40
2023-02-22T05:28:05.060Z,90.20
2023-02-22T05:30:33.342Z,90.10
2023-02-22T05:33:02.080Z,90.00
2023-02-22T05:35:29.332Z,90.00
2023-02-22T05:37:56.423Z,89.90
2023-02-22T05:40:25.685Z,90.00
2023-02-22T05:42:53.228Z,90.00
2023-02-22T05:45:22.111Z,89.90
2023-02-22T05:47:49.079Z,89.60
2023-02-22T05:50:18.894Z,89.60
2023-02-22T05:52:45.699Z,89.40
2023-02-22T05:55:14.479Z,89.40
2023-02-22T05:57:41.305Z,89.20
2023-02-22T06:00:09.870Z,89.40
2023-02-22T06:02:36.804Z,89.30
2023-02-22T06:05:03.852Z,89.30
2023-02-22T06:07:31.904Z,89.10
2023-02-22T06:09:58.630Z,88.90
2023-02-22T06:12:25.425Z,88.90
2023-02-22T06:14:52.159Z,89.10
2023-02-22T06:17:20.587Z,88.90
2023-02-22T06:19:47.441Z,88.70
2023-02-22T06:22:17.734Z,88.80
2023-02-22T06:24:45.939Z,89.00
2023-02-22T06:27:12.732Z,89.10
2023-02-22T06:29:39.461Z,89.30
2023-02-22T06:32:06.249Z,89.50
2023-02-22T06:34:32.969Z,89.40
2023-02-22T06:37:00.110Z,89.50
2023-02-22T06:39:26.947Z,89.10
2023-02-22T06:41:55.081Z,89.50
2023-02-22T06:44:21.997Z,90.00
2023-02-22T06:46:49.856Z,90.10
2023-02-22T06:49:16.876Z,90.20
2023-02-22T06:51:43.994Z,90.30
2023-02-22T06:54:10.758Z,90.40
2023-02-22T06:56:37.496Z,90.50
2023-02-22T06:59:05.591Z,90.50
2023-02-22T07:01:32.364Z,90.10
2023-02-22T07:03:59.069Z,89.80
2023-02-22T07:06:25.809Z,89.40
2023-02-22T07:08:52.532Z,89.70
2023-02-22T07:11:19.473Z,89.90
2023-02-22T07:13:46.392Z,90.40
2023-02-22T07:16:14.522Z,90.80
2023-02-22T07:18:41.286Z,90.70
2023-02-22T07:21:08.151Z,90.80
2023-02-22T07:23:35.085Z,91.30
2023-02-22T07:26:02.628Z,91.40
2023-02-22T07:28:29.427Z,91.00
2023-02-22T07:30:56.237Z,90.90
2023-02-22T07:33:24.362Z,91.20
2023-02-22T07:35:51.578Z,91.60
2023-02-22T07:38:20.083Z,91.30
2023-02-22T07:40:46.867Z,92.10
2023-02-22T07:43:17.217Z,91.90
2023-02-22T07:45:45.308Z,91.80
2023-02-22T07:48:13.476Z,91.90
2023-02-22T07:50:42.264Z,92.30
2023-02-22T07:53:13.431Z,92.70
2023-02-22T07:55:40.245Z,93.20
2023-02-22T07:58:08.766Z,93.50
2023-02-22T08:00:36.967Z,93.30
2023-02-22T08:03:06.199Z,93.70
2023-02-22T08:05:34.874Z,93.20
2023-02-22T08:08:03.031Z,93.30
2023-02-22T08:10:30.066Z,93.40
2023-02-22T08:12:57.534Z,93.40
2023-02-22T08:15:26.508Z,94.40
2023-02-22T08:17:53.237Z,94.30
2023-02-22T08:20:20.038Z,92.00
2023-02-22T08:22:47.438Z,91.10
2023-02-22T08:25:18.346Z,90.90
2023-02-22T08:27:45.314Z,90.60
2023-02-22T08:30:15.144Z,90.20
2023-02-22T08:32:41.999Z,89.60
2023-02-22T08:35:09.367Z,88.60
2023-02-22T08:37:36.091Z,88.00
2023-02-22T08:40:02.876Z,87.40
2023-02-22T08:42:30.949Z,87.10
2023-02-22T08:44:57.760Z,86.80
2023-02-22T08:47:25.324Z,86.60
2023-02-22T08:49:52.070Z,86.40
2023-02-22T08:52:19.879Z,86.40
2023-02-22T08:54:46.608Z,86.30
2023-02-22T08:57:13.367Z,86.20
2023-02-22T08:59:41.637Z,86.30
2023-02-22T09:02:14.818Z,86.30
2023-02-22T09:04:41.659Z,86.20
2023-02-22T09:07:08.440Z,86.10
2023-02-22T09:09:35.166Z,86.00
2023-02-22T09:12:02.071Z,86.00
2023-02-22T09:14:28.834Z,86.10
2023-02-22T09:16:57.197Z,86.10
2023-02-22T09:19:24.023Z,86.10
2023-02-22T09:21:53.334Z,86.10
2023-02-22T09:24:20.088Z,86.20
2023-02-22T09:26:48.220Z,86.20
2023-02-22T09:29:14.949Z,86.20
2023-02-22T09:31:42.179Z,86.40
2023-02-22T09:34:10.308Z,86.50
2023-02-22T09:36:37.021Z,86.80
2023-02-22T09:39:03.854Z,87.00
2023-02-22T09:41:36.536Z,86.90
2023-02-22T09:44:15.048Z,87.20
2023-02-22T09:46:44.997Z,87.30
2023-02-22T09:49:20.128Z,87.30
2023-02-22T09:51:52.199Z,87.70
2023-02-22T09:54:24.946Z,87.80
2023-02-22T09:56:56.072Z,88.10
2023-02-22T09:59:27.105Z,88.50
2023-02-22T10:02:02.439Z,88.80
2023-02-22T10:04:38.973Z,89.10
2023-02-22T10:07:15.562Z,89.50
2023-02-22T10:09:45.195Z,90.00
2023-02-22T10:12:18.901Z,90.00
2023-02-22T10:14:57.243Z,90.60
2023-02-22T10:17:32.688Z,90.20
2023-02-22T10:20:14.945Z,90.40
2023-02-22T10:22:56.285Z,90.40
2023-02-22T10:25:25.680Z,90.60
2023-02-22T10:27:57.575Z,90.80
2023-02-22T10:30:29.061Z,90.90
2023-02-22T10:33:04.560Z,90.90
2023-02-22T10:35:37.365Z,91.10
2023-02-22T10:38:14.212Z,91.40
2023-02-22T10:40:46.069Z,91.30
2023-02-22T10:43:12.910Z,91.50
2023-02-22T10:45:39.885Z,91.70
2023-02-22T10:48:09.202Z,91.90
2023-02-22T10:50:39.744Z,92.10
2023-02-22T10:53:06.700Z,92.10
2023-02-22T10:55:33.778Z,92.70
2023-02-22T10:58:03.183Z,92.40
2023-02-22T11:00:31.844Z,92.70
2023-02-22T11:03:00.232Z,93.00
2023-02-22T11:05:29.973Z,93.10
2023-02-22T11:08:22.565Z,93.00
2023-02-22T11:10:51.381Z,93.00
2023-02-22T11:13:19.266Z,93.40
2023-02-22T11:15:46.036Z,94.20
2023-02-22T11:18:25.114Z,94.30
2023-02-22T11:21:09.406Z,94.40
2023-02-22T11:23:39.749Z,94.50
2023-02-22T11:26:09.538Z,94.70
2023-02-22T11:28:37.411Z,94.80
2023-02-22T11:31:16.612Z,95.10
2023-02-22T11:33:51.297Z,95.60
2023-02-22T11:36:32.211Z,95.80
2023-02-22T11:39:00.360Z,95.80
2023-02-22T11:41:29.201Z,95.30
2023-02-22T11:44:13.520Z,95.80
2023-02-22T11:46:42.428Z,96.00
2023-02-22T11:49:11.924Z,95.80
2023-02-22T11:51:59.777Z,96.40
2023-02-22T11:55:00.914Z,96.50
2023-02-22T11:57:45.974Z,97.10
2023-02-22T12:00:19.090Z,97.20
2023-02-22T12:03:01.706Z,97.50
2023-02-22T12:05:44.484Z,97.50
2023-02-22T12:08:20.638Z,97.40
2023-02-22T12:11:05.416Z,97.80
2023-02-22T12:13:44.940Z,97.90
2023-02-22T12:16:24.074Z,98.30
2023-02-22T12:19:06.543Z,98.40
2023-02-22T12:21:38.569Z,98.20
2023-02-22T12:24:09.375Z,98.20
2023-02-22T12:26:41.113Z,98.30
2023-02-22T12:29:14.188Z,98.40
2023-02-22T12:31:44.935Z,98.70
2023-02-22T12:34:25.906Z,98.70
2023-02-22T12:36:55.979Z,98.70
2023-02-22T12:39:51.765Z,98.80
2023-02-22T12:42:29.844Z,98.90
2023-02-22T12:45:05.081Z,99.10
2023-02-22T12:47:40.441Z,99.50
2023-02-22T12:50:17.104Z,99.50
2023-02-22T12:52:47.647Z,99.30
2023-02-22T12:55:19.918Z,99.80
2023-02-22T12:57:53.883Z,99.80
2023-02-22T13:00:24.601Z,99.90
2023-02-22T13:02:58.293Z,99.90
2023-02-22T13:05:25.311Z,99.90
2023-02-22T13:08:07.933Z,99.90
2023-02-22T13:10:58.880Z,99.90
2023-02-22T13:13:35.214Z,99.90
2023-02-22T13:16:09.334Z,99.90
2023-02-22T13:18:38.426Z,99.90
2023-02-22T13:21:15.516Z,99.90
2023-02-22T13:23:53.264Z,99.90
2023-02-22T13:26:27.361Z,99.90
2023-02-22T13:28:59.536Z,99.90
2023-02-22T13:31:46.857Z,99.90
2023-02-22T13:34:30.954Z,99.90
2023-02-22T13:37:10.153Z,99.90
2023-02-22T13:40:05.536Z,99.90
2023-02-22T13:43:02.948Z,99.90
2023-02-22T13:45:57.982Z,99.90
2023-02-22T13:49:06.494Z,99.90
2023-02-22T13:51:45.868Z,99.90
2023-02-22T13:54:19.517Z,99.90
2023-02-22T13:56:48.731Z,99.90
2023-02-22T13:59:30.681Z,99.90
2023-02-22T14:02:00.375Z,99.90
2023-02-22T14:04:41.630Z,99.90
2023-02-22T14:07:56.305Z,99.90
2023-02-22T14:10:45.834Z,99.90
2023-02-22T14:13:13.672Z,99.90
2023-02-22T14:16:14.226Z,99.90
2023-02-22T14:18:44.369Z,99.90
2023-02-22T14:21:12.760Z,99.90
2023-02-22T14:23:40.864Z,99.90
2023-02-22T14:26:13.769Z,99.90
2023-02-22T14:28:46.590Z,99.90
2023-02-22T14:31:33.231Z,99.90
2023-02-22T14:34:07.086Z,99.90
2023-02-22T14:36:39.472Z,99.90
2023-02-22T14:39:13.762Z,99.90
2023-02-22T14:41:46.726Z,99.90
2023-02-22T14:44:15.586Z,99.90
2023-02-22T14:46:46.175Z,99.90
2023-02-22T14:49:19.803Z,99.90
2023-02-22T14:51:53.873Z,99.90
2023-02-22T14:54:25.274Z,99.90
2023-02-22T14:56:58.233Z,99.90
2023-02-22T14:59:27.038Z,99.90
2023-02-22T15:02:11.505Z,99.90
2023-02-22T15:04:40.225Z,99.90
2023-02-22T15:07:20.929Z,99.90
2023-02-22T15:09:47.954Z,99.90
2023-02-22T15:12:24.298Z,99.90
2023-02-22T15:15:09.416Z,99.90
2023-02-22T15:17:36.172Z,99.90
2023-02-22T15:20:08.137Z,99.90
2023-02-22T15:22:36.530Z,99.90
2023-02-22T15:25:06.807Z,99.90
2023-02-22T15:27:34.261Z,99.90
2023-02-22T15:30:03.063Z,99.90
2023-02-22T15:32:31.968Z,99.90
2023-02-22T15:35:13.160Z,99.90
2023-02-22T15:37:40.241Z,99.90
2023-02-22T15:40:08.386Z,99.90
2023-02-22T15:42:43.758Z,99.90
2023-02-22T15:45:15.825Z,99.90
2023-02-22T15:47:42.691Z,99.90
2023-02-22T15:50:21.139Z,99.90
2023-02-22T15:52:49.874Z,99.90
2023-02-22T15:55:17.541Z,99.90
2023-02-22T15:57:44.478Z,99.90
2023-02-22T16:00:21.253Z,99.90
2023-02-22T16:02:48.937Z,99.90
2023-02-22T16:05:17.966Z,99.90
2023-02-22T16:07:47.669Z,99.90
2023-02-22T16:10:21.164Z,99.90
2023-02-22T16:12:47.994Z,99.90
2023-02-22T16:15:16.520Z,99.90
2023-02-22T16:17:55.965Z,99.90
2023-02-22T16:20:34.391Z,99.90
2023-02-22T16:23:21.374Z,99.90
2023-02-22T16:26:02.069Z,99.90
2023-02-22T16:28:30.208Z,99.90
2023-02-22T16:30:58.045Z,99.90
2023-02-22T16:33:24.944Z,99.90
2023-02-22T16:35:53.158Z,99.90
2023-02-22T16:38:20.124Z,99.90
2023-02-22T16:40:49.915Z,99.90
2023-02-22T16:43:20.082Z,99.90
2023-02-22T16:45:46.944Z,99.90
2023-02-22T16:48:16.812Z,99.90
2023-02-22T16:50:43.582Z,99.90
2023-02-22T16:53:12.042Z,99.90
2023-02-22T16:55:41.614Z,99.90
2023-02-22T16:58:13.678Z,99.90
2023-02-22T17:00:40.679Z,99.90
2023-02-22T17:03:10.058Z,99.90
2023-02-22T17:05:37.005Z,99.90
2023-02-22T17:08:03.922Z,99.90
2023-02-22T17:10:32.129Z,99.90
2023-02-22T17:13:07.176Z,99.90
2023-02-22T17:15:39.648Z,99.90
2023-02-22T17:18:15.119Z,99.90
2023-02-22T17:20:42.137Z,99.90
2023-02-22T17:23:10.034Z,99.90
2023-02-22T17:25:40.789Z,99.90
2023-02-22T17:28:07.981Z,99.90
2023-02-22T17:30:35.539Z,99.90
2023-02-22T17:33:04.215Z,99.90
2023-02-22T17:35:35.603Z,99.90
2023-02-22T17:38:03.953Z,99.90
2023-02-22T17:40:30.733Z,99.90
2023-02-22T17:42:59.055Z,99.90
2023-02-22T17:45:25.962Z,99.90
2023-02-22T17:47:53.116Z,99.90
2023-02-22T17:50:21.792Z,99.80
2023-02-22T17:52:49.596Z,99.60
2023-02-22T17:55:16.448Z,99.60
2023-02-22T17:57:43.315Z,99.90
2023-02-22T18:00:15.778Z,99.60
2023-02-22T18:02:43.395Z,99.10
2023-02-22T18:05:12.042Z,99.40
2023-02-22T18:07:38.769Z,99.30
2023-02-22T18:10:06.882Z,99.10
2023-02-22T18:12:33.641Z,99.00
2023-02-22T18:15:00.369Z,99.40
2023-02-22T18:17:28.469Z,99.50
2023-02-22T18:19:55.196Z,99.60
2023-02-22T18:22:22.379Z,99.20
2023-02-22T18:24:49.228Z,98.90
2023-02-22T18:27:15.962Z,99.00
2023-02-22T18:29:42.844Z,98.50
2023-02-22T18:32:09.574Z,98.60
2023-02-22T18:34:37.737Z,98.10
2023-02-22T18:37:04.952Z,98.00
2023-02-22T18:39:32.677Z,98.00
2023-02-22T18:41:59.512Z,97.80
2023-02-22T18:44:26.315Z,98.20
2023-02-22T18:46:53.169Z,98.10
2023-02-22T18:49:20.094Z,96.20
2023-02-22T18:51:48.467Z,97.30
2023-02-22T18:54:15.190Z,97.90
2023-02-22T18:56:41.925Z,96.70
2023-02-22T18:59:10.405Z,96.40
2023-02-22T19:01:37.773Z,97.20
2023-02-22T19:04:04.774Z,97.80
2023-02-22T19:06:31.770Z,97.80
2023-02-22T19:09:01.097Z,97.90
2023-02-22T19:11:27.873Z,96.90
2023-02-22T19:13:57.626Z,96.60
2023-02-22T19:16:26.764Z,97.40
2023-02-22T19:18:54.145Z,97.00
2023-02-22T19:21:21.384Z,97.60
2023-02-22T19:23:48.994Z,96.90
2023-02-22T19:26:20.512Z,97.00
2023-02-22T19:28:48.384Z,96.40
2023-02-22T19:31:18.312Z,96.50
2023-02-22T19:33:46.645Z,96.60
2023-02-22T19:36:14.708Z,96.20
2023-02-22T19:38:42.864Z,96.20
2023-02-22T19:41:12.049Z,96.10
2023-02-22T19:43:40.197Z,96.50
2023-02-22T19:46:08.046Z,96.30
2023-02-22T19:48:36.080Z,96.90
2023-02-22T19:51:04.853Z,96.90
2023-02-22T19:53:31.764Z,96.80
2023-02-22T19:55:59.085Z,97.10
2023-02-22T19:58:26.038Z,96.70
2023-02-22T20:00:55.084Z,96.50
2023-02-22T20:03:21.940Z,96.30
2023-02-22T20:05:48.978Z,96.60
2023-02-22T20:08:15.948Z,96.40
2023-02-22T20:10:42.698Z,96.50
2023-02-22T20:13:10.104Z,96.30
2023-02-22T20:15:36.933Z,96.30
2023-02-22T20:18:05.309Z,95.60
2023-02-22T20:20:32.101Z,95.60
2023-02-22T20:22:58.836Z,92.80
2023-02-22T20:25:25.596Z,94.20
2023-02-22T20:27:52.322Z,96.40
2023-02-22T20:30:19.071Z,96.60
2023-02-22T20:32:45.953Z,96.80
2023-02-22T20:35:14.138Z,97.40
2023-02-22T20:37:40.874Z,97.60
2023-02-22T20:40:08.383Z,97.70
2023-02-22T20:42:35.115Z,97.10
2023-02-22T20:45:02.024Z,96.90
2023-02-22T20:47:28.990Z,96.20
2023-02-22T20:49:55.740Z,96.00
2023-02-22T20:52:23.830Z,95.80
2023-02-22T20:54:50.571Z,95.50
2023-02-22T20:57:17.319Z,95.90
2023-02-22T20:59:44.180Z,95.80
2023-02-22T21:02:11.100Z,96.20
2023-02-22T21:04:37.863Z,96.00
2023-02-22T21:07:04.646Z,96.00
2023-02-22T21:09:32.717Z,95.70
2023-02-22T21:11:59.437Z,96.60
2023-02-22T21:14:26.215Z,95.80
2023-02-22T21:16:53.289Z,96.00
2023-02-22T21:19:20.526Z,95.70
2023-02-22T21:21:47.292Z,95.70
2023-02-22T21:24:14.009Z,95.40
2023-02-22T21:26:42.084Z,96.60
2023-02-22T21:29:09.471Z,97.40
2023-02-22T21:31:36.999Z,97.10
2023-02-22T21:34:03.966Z,97.10
2023-02-22T21:36:30.881Z,97.00
2023-02-22T21:38:59.090Z,96.80
2023-02-22T21:41:28.043Z,96.80
2023-02-22T21:43:57.925Z,96.30
2023-02-22T21:46:25.509Z,96.30
2023-02-22T21:48:52.305Z,96.50
2023-02-22T21:51:21.264Z,96.10
2023-02-22T21:53:50.351Z,96.10
2023-02-22T21:56:22.833Z,96.00
2023-02-22T21:58:54.845Z,96.40
2023-02-22T22:01:22.952Z,96.10
2023-02-22T22:03:49.718Z,96.00
2023-02-22T22:06:16.437Z,96.30
2023-02-22T22:08:43.406Z,96.10
2023-02-22T22:11:12.267Z,96.30
2023-02-22T22:13:40.866Z,96.30
2023-02-22T22:16:09.739Z,96.60
2023-02-22T22:18:39.380Z,97.00
2023-02-22T22:21:10.029Z,97.10
2023-02-22T22:23:38.133Z,97.20
2023-02-22T22:26:05.782Z,98.40
2023-02-22T22:28:32.493Z,98.70
2023-02-22T22:30:59.245Z,99.20
2023-02-22T22:33:25.974Z,98.80
2023-02-22T22:35:56.860Z,99.20
2023-02-22T22:38:23.625Z,99.30
2023-02-22T22:40:50.346Z,99.00
2023-02-22T22:43:17.140Z,98.00
2023-02-22T22:45:43.889Z,97.60
2023-02-22T22:48:10.612Z,97.60
2023-02-22T22:50:37.367Z,98.20
2023-02-22T22:53:05.525Z,98.10
2023-02-22T22:55:32.255Z,98.00
2023-02-22T22:57:59.026Z,97.90
2023-02-22T23:00:27.580Z,98.00
2023-02-22T23:02:54.376Z,97.80
2023-02-22T23:05:21.138Z,97.50
2023-02-22T23:07:47.954Z,97.50
2023-02-22T23:10:16.289Z,97.30
2023-02-22T23:12:43.046Z,97.70
2023-02-22T23:15:10.645Z,97.90
2023-02-22T23:17:37.378Z,97.70
2023-02-22T23:20:04.647Z,97.70
2023-02-22T23:22:31.375Z,98.10
2023-02-22T23:24:58.274Z,98.10
2023-02-22T23:27:26.395Z,98.40
2023-02-22T23:29:53.219Z,98.50
2023-02-22T23:32:20.072Z,98.50
2023-02-22T23:34:47.123Z,98.60
2023-02-22T23:37:13.836Z,98.30
2023-02-22T23:39:40.573Z,98.30
2023-02-22T23:42:07.371Z,98.30
2023-02-22T23:44:35.452Z,98.70
2023-02-22T23:47:02.343Z,98.90
2023-02-22T23:49:29.697Z,98.90
2023-02-22T23:51:56.466Z,98.90
2023-02-22T23:54:23.197Z,99.30
2023-02-22T23:56:49.940Z,98.80
2023-02-22T23:59:16.709Z,98.70
